TimeCDT,TemperatureF,Dew PointF,Humidity,Sea Level PressureIn,VisibilityMPH,Wind Direction,Wind SpeedMPH,Gust SpeedMPH,PrecipitationIn,Events,Conditions,WindDirDegrees,DateUTC
12:53 AM,75.0,70.0,84,29.66,10.0,WSW,16.1,20.7,N/A,,Clear,250,2013-07-23 05:53:00
1:53 AM,75.9,66.0,71,29.66,10.0,WNW,12.7,-,N/A,,Clear,290,2013-07-23 06:53:00
2:53 AM,73.0,68.0,84,29.68,10.0,WNW,9.2,-,N/A,,Scattered Clouds,290,2013-07-23 07:53:00
3:03 AM,73.4,66.2,78,29.71,10.0,North,9.2,18.4,N/A,,Mostly Cloudy,360,2013-07-23 08:03:00
3:53 AM,69.1,60.1,73,29.71,10.0,NNW,12.7,-,N/A,,Overcast,340,2013-07-23 08:53:00
4:06 AM,69.8,59.0,68,29.73,10.0,NNW,10.4,-,N/A,,Overcast,340,2013-07-23 09:06:00
4:53 AM,68.0,57.9,70,29.73,10.0,North,6.9,-,N/A,,Overcast,360,2013-07-23 09:53:00
5:53 AM,66.9,57.0,70,29.76,10.0,NNW,9.2,-,N/A,,Overcast,340,2013-07-23 10:53:00
6:53 AM,66.0,55.9,70,29.77,10.0,NNW,10.4,-,N/A,,Overcast,340,2013-07-23 11:53:00
7:53 AM,68.0,55.0,63,29.78,10.0,North,12.7,-,N/A,,Partly Cloudy,360,2013-07-23 12:53:00
8:53 AM,69.1,55.9,63,29.81,10.0,North,13.8,-,N/A,,Clear,350,2013-07-23 13:53:00
9:53 AM,69.1,57.0,65,29.83,10.0,North,11.5,19.6,N/A,,Mostly Cloudy,350,2013-07-23 14:53:00
10:53 AM,68.0,55.0,63,29.84,10.0,North,9.2,18.4,N/A,,Mostly Cloudy,350,2013-07-23 15:53:00
11:53 AM,70.0,54.0,57,29.88,10.0,NNW,15.0,19.6,N/A,,Overcast,340,2013-07-23 16:53:00
12:53 PM,71.1,54.0,55,29.88,10.0,North,10.4,20.7,N/A,,Mostly Cloudy,350,2013-07-23 17:53:00
1:53 PM,71.1,53.1,53,29.89,10.0,North,9.2,23.0,N/A,,Mostly Cloudy,360,2013-07-23 18:53:00
2:53 PM,69.1,52.0,54,29.91,10.0,North,8.1,19.6,N/A,,Overcast,10,2013-07-23 19:53:00
3:53 PM,66.0,53.1,63,29.92,10.0,NE,13.8,18.4,N/A,,Mostly Cloudy,50,2013-07-23 20:53:00
4:53 PM,66.9,53.1,61,29.93,10.0,ENE,10.4,-,N/A,,Scattered Clouds,60,2013-07-23 21:53:00
5:53 PM,66.0,55.0,68,29.93,10.0,NE,11.5,-,N/A,,Clear,50,2013-07-23 22:53:00
6:53 PM,64.0,54.0,70,29.92,10.0,NE,11.5,-,N/A,,Clear,50,2013-07-23 23:53:00
7:53 PM,61.0,54.0,78,29.95,10.0,NE,8.1,-,N/A,,Clear,50,2013-07-24 00:53:00
8:53 PM,57.9,53.1,84,29.96,10.0,NNE,6.9,-,N/A,,Clear,20,2013-07-24 01:53:00
9:53 PM,57.0,52.0,83,29.99,10.0,NNE,4.6,-,N/A,,Clear,20,2013-07-24 02:53:00
10:53 PM,55.0,51.1,86,30.01,10.0,North,3.5,-,N/A,,Clear,360,2013-07-24 03:53:00
11:53 PM,52.0,51.1,97,30.02,10.0,Calm,Calm,-,N/A,,Clear,0,2013-07-24 04:53:00